createdAt,value
2019-06-01T00:01:29.934Z,93.22
2019-06-01T00:06:29.730Z,92.67
2019-06-01T00:11:29.834Z,92.47
2019-06-01T00:16:29.688Z,92.26
2019-06-01T00:21:29.587Z,92.47
2019-06-01T00:26:29.452Z,91.96
2019-06-01T00:31:29.457Z,92.47
2019-06-01T00:36:29.318Z,92.26
2019-06-01T00:41:29.359Z,92.47
2019-06-01T00:46:29.198Z,92.57
2019-06-01T00:51:29.260Z,92.67
2019-06-01T00:56:29.347Z,92.67
2019-06-01T01:01:29.256Z,92.87
2019-06-01T01:06:30.266Z,93.12
2019-06-01T01:11:29.470Z,93.02
2019-06-01T01:16:28.937Z,93.32
2019-06-01T01:21:28.947Z,93.43
2019-06-01T01:26:28.935Z,93.93
2019-06-01T01:31:28.732Z,94.18
2019-06-01T01:36:28.683Z,94.08
2019-06-01T01:41:28.604Z,94.28
2019-06-01T01:46:28.663Z,94.48
2019-06-01T01:51:28.479Z,94.18
2019-06-01T01:56:28.691Z,93.67
2019-06-01T02:01:28.531Z,93.67
2019-06-01T02:06:29.279Z,93.77
2019-06-01T02:11:28.383Z,94.12
2019-06-01T02:16:28.274Z,94.32
2019-06-01T02:21:28.223Z,94.53
2019-06-01T02:26:28.171Z,94.73
2019-06-01T02:31:40.984Z,95.04
2019-06-01T02:36:29.025Z,94.84
2019-06-01T02:41:27.956Z,94.88
2019-06-01T02:46:27.920Z,95.08
2019-06-01T02:51:27.990Z,95.08
2019-06-01T02:56:27.905Z,94.78
2019-06-01T03:01:27.861Z,94.88
2019-06-01T03:06:27.789Z,95.33
2019-06-01T03:11:27.991Z,95.64
2019-06-01T03:16:27.793Z,95.53
2019-06-01T03:21:27.497Z,95.64
2019-06-01T03:26:27.443Z,95.53
2019-06-01T03:31:27.411Z,95.43
2019-06-01T03:36:27.363Z,95.18
2019-06-01T03:41:27.275Z,95.18
2019-06-01T03:46:27.302Z,95.49
2019-06-01T03:51:29.327Z,94.63
2019-06-01T03:56:27.264Z,94.93
2019-06-01T04:01:27.202Z,94.43
2019-06-01T04:06:27.014Z,93.82
2019-06-01T04:11:27.032Z,94.02
2019-06-01T04:16:27.101Z,93.67
2019-06-01T04:21:26.838Z,93.57
2019-06-01T04:26:26.784Z,93.16
2019-06-01T04:31:26.958Z,92.82
2019-06-01T04:36:26.858Z,92.87
2019-06-01T04:41:26.727Z,92.77
2019-06-01T04:46:26.641Z,92.72
2019-06-01T04:51:29.868Z,92.79
2019-06-01T04:56:26.529Z,91.67
2019-06-01T05:01:26.398Z,90.02
2019-06-01T05:06:26.393Z,87.16
2019-06-01T05:11:26.294Z,85.66
2019-06-01T05:16:26.347Z,84.87
2019-06-01T05:21:26.299Z,82.07
2019-06-01T05:26:26.305Z,79.36
2019-06-01T05:31:26.194Z,77.48
2019-06-01T05:36:28.217Z,77.00
2019-06-01T05:41:26.079Z,75.79
2019-06-01T05:46:27.094Z,74.35
2019-06-01T05:51:25.960Z,75.11
2019-06-01T05:56:25.965Z,74.27
2019-06-01T06:01:25.780Z,72.66
2019-06-01T06:06:25.731Z,68.49
2019-06-01T06:11:25.664Z,64.67
2019-06-01T06:16:25.736Z,63.81
2019-06-01T06:21:25.802Z,62.75
2019-06-01T06:26:26.600Z,59.65
2019-06-01T06:31:25.619Z,59.82
2019-06-01T06:36:25.675Z,58.57
2019-06-01T06:41:25.410Z,57.35
2019-06-01T06:46:25.464Z,57.78
2019-06-01T06:51:25.598Z,57.42
2019-06-01T06:56:26.180Z,56.48
2019-06-01T07:01:25.326Z,55.66
2019-06-01T07:06:25.703Z,54.96
2019-06-01T07:11:25.433Z,55.16
2019-06-01T07:16:28.207Z,53.85
2019-06-01T07:21:25.863Z,54.10
2019-06-01T07:26:26.117Z,52.63
2019-06-01T07:31:26.188Z,51.75
2019-06-01T07:36:24.904Z,51.32
2019-06-01T07:41:24.924Z,51.13
2019-06-01T07:46:24.923Z,51.03
2019-06-01T07:51:25.501Z,51.89
2019-06-01T07:56:24.798Z,51.47
2019-06-01T08:01:25.811Z,52.04
2019-06-01T08:06:28.792Z,50.14
2019-06-01T08:11:30.107Z,50.90
2019-06-01T08:16:25.877Z,49.30
2019-06-01T08:21:24.488Z,48.93
2019-06-01T08:26:24.480Z,49.84
2019-06-01T08:31:24.561Z,51.35
2019-06-01T08:36:25.226Z,49.74
2019-06-01T08:41:25.501Z,49.77
2019-06-01T08:46:25.457Z,50.63
2019-06-01T08:51:24.266Z,50.98
2019-06-01T08:56:24.295Z,49.90
2019-06-01T09:01:24.495Z,49.67
2019-06-01T09:06:24.832Z,50.04
2019-06-01T09:11:25.061Z,52.34
2019-06-01T09:16:25.378Z,52.26
2019-06-01T09:21:25.273Z,50.41
2019-06-01T09:26:24.069Z,51.54
2019-06-01T09:31:24.012Z,50.51
2019-06-01T09:36:23.909Z,49.92
2019-06-01T09:41:23.849Z,48.88
2019-06-01T09:46:23.802Z,48.83
2019-06-01T09:51:23.831Z,47.38
2019-06-01T09:56:29.045Z,49.48
2019-06-01T10:01:25.294Z,49.82
2019-06-01T10:06:23.590Z,51.28
2019-06-01T10:11:23.735Z,51.37
2019-06-01T10:16:24.762Z,53.60
2019-06-01T10:21:23.589Z,52.48
2019-06-01T10:26:23.462Z,52.09
2019-06-01T10:31:23.387Z,49.90
2019-06-01T10:36:23.422Z,50.34
2019-06-01T10:41:23.311Z,52.28
2019-06-01T10:46:23.279Z,49.68
2019-06-01T10:51:23.217Z,50.34
2019-06-01T10:56:25.198Z,49.73
2019-06-01T11:01:23.139Z,46.95
2019-06-01T11:06:36.598Z,46.30
2019-06-01T11:11:24.053Z,45.80
2019-06-01T11:16:23.058Z,46.93
2019-06-01T11:21:23.068Z,42.47
2019-06-01T11:26:22.941Z,46.69
2019-06-01T11:31:26.166Z,45.70
2019-06-01T11:36:22.871Z,43.82
2019-06-01T11:41:23.117Z,42.60
2019-06-01T11:46:22.821Z,43.31
2019-06-01T11:51:22.794Z,44.07
2019-06-01T11:56:22.713Z,42.17
2019-06-01T12:01:22.785Z,41.96
2019-06-01T12:06:22.704Z,40.88
2019-06-01T12:11:22.784Z,41.76
2019-06-01T12:16:22.772Z,41.25
2019-06-01T12:21:22.613Z,42.13
2019-06-01T12:26:22.663Z,39.33
2019-06-01T12:31:22.613Z,43.43
2019-06-01T12:36:22.474Z,41.96
2019-06-01T12:41:22.771Z,42.19
2019-06-01T12:46:22.388Z,40.86
2019-06-01T12:51:22.328Z,40.16
2019-06-01T12:56:22.424Z,39.53
2019-06-01T13:01:22.252Z,40.56
2019-06-01T13:06:22.209Z,41.52
2019-06-01T13:11:22.211Z,41.83
2019-06-01T13:16:22.219Z,40.72
2019-06-01T13:21:22.170Z,40.89
2019-06-01T13:26:22.251Z,39.82
2019-06-01T13:31:22.014Z,39.33
2019-06-01T13:36:22.209Z,38.09
2019-06-01T13:41:22.006Z,41.88
2019-06-01T13:46:21.931Z,39.65
2019-06-01T13:51:21.859Z,40.33
2019-06-01T13:56:21.828Z,39.70
2019-06-01T14:01:21.814Z,39.51
2019-06-01T14:06:21.841Z,38.92
2019-06-01T14:11:21.820Z,38.61
2019-06-01T14:16:21.723Z,38.63
2019-06-01T14:21:22.011Z,37.93
2019-06-01T14:26:21.694Z,38.75
2019-06-01T14:31:21.610Z,40.47
2019-06-01T14:36:21.556Z,38.81
2019-06-01T14:41:21.602Z,38.69
2019-06-01T14:46:21.464Z,38.63
2019-06-01T14:51:21.453Z,38.09
2019-06-01T14:56:21.382Z,38.05
2019-06-01T15:01:32.105Z,36.88
2019-06-01T15:06:22.360Z,37.27
2019-06-01T15:11:21.261Z,36.40
2019-06-01T15:16:21.200Z,37.79
2019-06-01T15:21:21.216Z,37.70
2019-06-01T15:26:21.240Z,37.52
2019-06-01T15:31:21.466Z,37.12
2019-06-01T15:36:21.074Z,38.10
2019-06-01T15:41:21.057Z,38.32
2019-06-01T15:46:21.116Z,38.71
2019-06-01T15:51:21.046Z,39.26
2019-06-01T15:56:23.612Z,39.43
2019-06-01T16:01:26.364Z,40.37
2019-06-01T16:06:20.838Z,42.46
2019-06-01T16:11:20.879Z,40.62
2019-06-01T16:16:20.777Z,40.31
2019-06-01T16:21:20.769Z,41.11
2019-06-01T16:26:20.824Z,40.70
2019-06-01T16:31:20.771Z,40.53
2019-06-01T16:36:20.609Z,41.27
2019-06-01T16:41:20.541Z,43.02
2019-06-01T16:46:20.505Z,42.90
2019-06-01T16:51:20.450Z,43.60
2019-06-01T16:56:20.413Z,43.04
2019-06-01T17:01:22.685Z,43.13
2019-06-01T17:06:20.535Z,43.35
2019-06-01T17:11:20.396Z,44.13
2019-06-01T17:16:20.318Z,46.04
2019-06-01T17:21:20.187Z,47.98
2019-06-01T17:26:20.249Z,48.74
2019-06-01T17:31:20.160Z,47.90
2019-06-01T17:36:20.040Z,49.43
2019-06-01T17:41:20.018Z,50.51
2019-06-01T17:46:22.646Z,51.37
2019-06-01T17:51:19.980Z,51.32
2019-06-01T17:56:19.927Z,52.17
2019-06-01T18:01:19.842Z,52.61
2019-06-01T18:06:19.804Z,53.72
2019-06-01T18:11:19.734Z,55.43
2019-06-01T18:16:19.680Z,56.15
2019-06-01T18:21:19.615Z,56.87
2019-06-01T18:26:19.637Z,57.20
2019-06-01T18:31:19.594Z,57.32
2019-06-01T18:36:20.469Z,58.25
2019-06-01T18:41:20.157Z,59.56
2019-06-01T18:46:19.415Z,60.28
2019-06-01T18:51:19.310Z,60.91
2019-06-01T18:56:19.343Z,60.94
2019-06-01T19:01:20.980Z,59.25
2019-06-01T19:06:19.158Z,61.54
2019-06-01T19:11:32.620Z,62.16
2019-06-01T19:16:20.017Z,63.12
2019-06-01T19:21:19.004Z,62.82
2019-06-01T19:26:18.919Z,64.01
2019-06-01T19:31:18.856Z,65.01
2019-06-01T19:36:18.799Z,65.54
2019-06-01T19:41:18.758Z,66.14
2019-06-01T19:46:18.690Z,65.47
2019-06-01T19:51:18.849Z,67.30
2019-06-01T19:56:20.489Z,67.73
2019-06-01T20:01:18.572Z,68.06
2019-06-01T20:06:18.946Z,68.70
2019-06-01T20:11:19.346Z,69.02
2019-06-01T20:16:20.244Z,69.89
2019-06-01T20:21:18.811Z,70.49
2019-06-01T20:26:19.399Z,70.83
2019-06-01T20:31:18.251Z,71.12
2019-06-01T20:36:18.199Z,71.12
2019-06-01T20:41:18.646Z,71.26
2019-06-01T20:46:18.827Z,71.36
2019-06-01T20:51:18.825Z,72.69
2019-06-01T20:56:19.353Z,72.60
2019-06-01T21:01:17.948Z,73.63
2019-06-01T21:06:18.716Z,72.83
2019-06-01T21:11:17.942Z,74.43
2019-06-01T21:16:18.084Z,73.93
2019-06-01T21:21:18.298Z,73.43
2019-06-01T21:26:18.938Z,73.13
2019-06-01T21:31:17.557Z,73.43
2019-06-01T21:36:17.521Z,73.63
2019-06-01T21:41:17.553Z,74.17
2019-06-01T21:46:17.602Z,74.67
2019-06-01T21:51:17.743Z,74.57
2019-06-01T21:56:20.128Z,75.27
2019-06-01T22:01:18.382Z,75.17
2019-06-01T22:06:17.277Z,75.47
2019-06-01T22:11:17.354Z,75.37
2019-06-01T22:16:17.508Z,75.17
2019-06-01T22:21:17.637Z,75.77
2019-06-01T22:26:17.882Z,75.60
2019-06-01T22:31:18.166Z,76.11
2019-06-01T22:36:16.989Z,76.51
2019-06-01T22:41:16.980Z,76.71
2019-06-01T22:46:16.798Z,77.15
2019-06-01T22:51:16.690Z,77.05
2019-06-01T22:56:16.633Z,77.35
2019-06-01T23:01:16.567Z,77.25
2019-06-01T23:06:16.519Z,77.45
2019-06-01T23:11:16.498Z,78.09
2019-06-01T23:16:16.437Z,78.09
2019-06-01T23:21:16.484Z,78.83
2019-06-01T23:26:16.391Z,79.37
2019-06-01T23:31:16.340Z,79.47
2019-06-01T23:36:16.262Z,79.77
2019-06-01T23:41:16.206Z,80.21
2019-06-01T23:46:16.146Z,80.51
2019-06-01T23:51:16.084Z,80.41
2019-06-01T23:56:16.079Z,81.15
